Time;durP1;ratioP1;P1;durP2;ratioP2;P2;SDS_P1;SDS_P2;PMS_P1;PMS_P2;Temp;Humidity;BMP_temperature;BMP_pressure;BME280_temperature;BME280_humidity;BME280_pressure;Samples;Min_cycle;Max_cycle;Signal;HPM_P1;HPM_P2
2022/05/05 00:01:33;;;;;;;16.50;5.30;;;7.40;99.90;;;;;;5019018;28;20057;-73
2022/05/05 00:04:00;;;;;;;16.88;5.47;;;7.40;99.90;;;;;;5050900;28;20370;-74
2022/05/05 00:06:27;;;;;;;20.10;6.18;;;7.40;99.90;;;;;;5051168;28;20123;-74
2022/05/05 00:08:54;;;;;;;11.98;5.90;;;7.40;99.90;;;;;;5050688;28;20041;-74
2022/05/05 00:16:53;;;;;;;13.75;5.18;;;7.30;99.90;;;;;;5051098;28;20053;-75
2022/05/05 00:19:19;;;;;;;17.50;5.40;;;7.30;99.90;;;;;;5052217;28;20056;-74
2022/05/05 00:21:45;;;;;;;15.75;5.50;;;7.30;99.90;;;;;;5052162;28;20504;-74
2022/05/05 00:24:12;;;;;;;16.42;5.50;;;7.30;99.90;;;;;;5035693;28;20088;-75
2022/05/05 00:26:37;;;;;;;16.48;4.85;;;7.30;99.90;;;;;;5056276;28;20052;-75
2022/05/05 00:29:03;;;;;;;15.77;5.55;;;7.30;99.90;;;;;;5054916;28;20041;-75
2022/05/05 00:31:29;;;;;;;15.13;5.28;;;7.30;99.90;;;;;;5054787;28;20127;-74
2022/05/05 00:33:55;;;;;;;15.80;5.07;;;7.30;99.90;;;;;;5056208;28;20041;-74
2022/05/05 00:36:20;;;;;;;15.77;5.22;;;7.30;99.90;;;;;;5054882;28;20041;-74
2022/05/05 00:38:46;;;;;;;15.27;4.80;;;7.30;99.90;;;;;;5054914;28;20452;-74
2022/05/05 00:41:12;;;;;;;19.75;5.07;;;7.30;99.90;;;;;;5055966;28;20045;-74
2022/05/05 00:43:38;;;;;;;10.68;5.03;;;7.30;99.90;;;;;;5071356;28;20056;-74
2022/05/05 00:46:04;;;;;;;19.17;5.22;;;7.30;99.90;;;;;;5054678;28;20045;-73
2022/05/05 00:48:31;;;;;;;14.13;5.35;;;7.30;99.90;;;;;;5055847;28;20132;-74
2022/05/05 00:50:57;;;;;;;14.00;5.25;;;7.30;99.90;;;;;;5054337;28;20049;-74
2022/05/05 00:53:23;;;;;;;16.13;4.90;;;7.30;99.90;;;;;;5055163;28;20049;-74
2022/05/05 00:55:58;;;;;;;20.30;5.63;;;7.30;99.90;;;;;;5055480;28;20052;-74
2022/05/05 00:58:25;;;;;;;13.13;5.07;;;7.20;99.90;;;;;;5055078;28;20544;-74
2022/05/05 01:00:51;;;;;;;18.92;4.88;;;7.20;99.90;;;;;;5054073;28;20052;-73
2022/05/05 01:03:18;;;;;;;18.40;5.55;;;7.20;99.90;;;;;;5055447;28;20048;-74
2022/05/05 01:05:44;;;;;;;15.52;5.40;;;7.20;99.90;;;;;;5054388;28;20045;-74
2022/05/05 01:08:10;;;;;;;16.95;5.10;;;7.20;99.90;;;;;;5054319;28;20049;-74
2022/05/05 01:10:36;;;;;;;11.45;5.25;;;7.20;99.90;;;;;;5055720;28;20091;-74
2022/05/05 01:13:02;;;;;;;14.27;4.97;;;7.10;99.90;;;;;;5054241;28;20472;-74
2022/05/05 01:15:32;;;;;;;18.65;5.78;;;7.10;99.90;;;;;;5055932;28;20049;-74
2022/05/05 01:17:57;;;;;;;15.50;5.75;;;7.10;99.90;;;;;;5053494;28;20053;-75
2022/05/05 01:20:23;;;;;;;21.65;6.00;;;7.10;99.90;;;;;;5055451;28;20057;-75
2022/05/05 01:22:52;;;;;;;21.42;6.25;;;7.00;99.90;;;;;;5054187;28;20052;-75
2022/05/05 01:28:14;;;;;;;20.63;5.43;;;7.10;99.90;;;;;;5054374;28;20068;-75
2022/05/05 01:30:45;;;;;;;15.48;5.70;;;7.00;99.90;;;;;;5055215;28;20504;-75
2022/05/05 01:33:20;;;;;;;19.63;6.30;;;7.10;99.90;;;;;;5053372;28;20100;-74
2022/05/05 01:35:57;;;;;;;15.00;5.80;;;7.00;99.90;;;;;;5054563;28;20394;-74
2022/05/05 01:38:26;;;;;;;14.63;5.72;;;7.00;99.90;;;;;;5037552;28;20123;-75
2022/05/05 01:40:52;;;;;;;17.58;6.15;;;7.00;99.90;;;;;;5054640;28;20053;-75
2022/05/05 01:43:21;;;;;;;17.60;5.90;;;7.00;99.90;;;;;;5054333;28;20041;-74
2022/05/05 01:45:47;;;;;;;20.90;7.25;;;7.00;99.90;;;;;;5037272;28;20457;-74
2022/05/05 01:48:14;;;;;;;15.35;6.18;;;6.90;99.90;;;;;;5053170;28;20551;-74
2022/05/05 01:50:40;;;;;;;21.77;6.18;;;6.90;99.90;;;;;;5036863;28;20048;-74
2022/05/05 01:53:06;;;;;;;16.17;6.47;;;6.90;99.90;;;;;;5053224;28;20144;-74
2022/05/05 01:55:33;;;;;;;15.50;5.82;;;6.90;99.90;;;;;;5053272;28;20053;-74
2022/05/05 01:58:01;;;;;;;17.65;6.30;;;6.80;99.90;;;;;;5054312;28;20457;-75
2022/05/05 02:00:26;;;;;;;18.48;7.03;;;6.90;99.90;;;;;;5036907;28;20049;-73
2022/05/05 02:02:53;;;;;;;14.95;5.85;;;6.90;99.90;;;;;;5054330;28;20071;-76
2022/05/05 02:05:19;;;;;;;16.92;6.18;;;6.80;99.90;;;;;;5053495;28;20041;-74
2022/05/05 02:07:46;;;;;;;19.73;7.23;;;6.80;99.90;;;;;;5054916;28;20052;-74
2022/05/05 02:10:16;;;;;;;21.10;6.37;;;6.80;99.90;;;;;;5035655;28;20306;-75
2022/05/05 02:12:43;;;;;;;23.50;6.93;;;6.70;99.90;;;;;;5036401;28;20326;-73
2022/05/05 02:15:11;;;;;;;17.70;6.82;;;6.70;99.90;;;;;;5054607;28;20102;-74
2022/05/05 02:17:38;;;;;;;19.42;6.80;;;6.60;99.90;;;;;;5053963;28;20045;-74
2022/05/05 02:20:06;;;;;;;17.48;6.32;;;6.70;99.90;;;;;;5053459;28;20053;-74
2022/05/05 02:22:32;;;;;;;20.80;6.60;;;6.60;99.90;;;;;;5052883;28;20044;-74
2022/05/05 02:24:58;;;;;;;19.77;7.82;;;6.60;99.90;;;;;;5053953;28;20500;-74
2022/05/05 02:27:24;;;;;;;16.35;7.15;;;6.50;99.90;;;;;;5036396;28;20055;-74
2022/05/05 02:29:51;;;;;;;15.90;6.43;;;6.50;99.90;;;;;;5054076;28;20053;-74
2022/05/05 02:32:17;;;;;;;18.13;7.35;;;6.50;99.90;;;;;;5053985;28;20045;-74
2022/05/05 02:34:44;;;;;;;22.50;7.65;;;6.50;99.90;;;;;;5053360;28;20048;-74
2022/05/05 02:39:55;;;;;;;16.38;6.72;;;6.40;99.90;;;;;;5053661;28;20053;-74
2022/05/05 02:42:21;;;;;;;22.83;7.60;;;6.40;99.90;;;;;;5054467;28;20056;-74
2022/05/05 02:44:47;;;;;;;23.48;7.45;;;6.30;99.90;;;;;;5053099;28;20056;-74
2022/05/05 02:47:13;;;;;;;18.80;6.50;;;6.30;99.90;;;;;;5052868;28;20041;-74
2022/05/05 02:49:39;;;;;;;16.63;6.90;;;6.30;99.90;;;;;;5053470;28;20049;-73
2022/05/05 02:52:06;;;;;;;22.63;8.30;;;6.30;99.90;;;;;;5053560;28;20049;-73
2022/05/05 02:54:47;;;;;;;16.98;7.45;;;6.30;99.90;;;;;;5052129;28;20049;-73
2022/05/05 02:57:18;;;;;;;21.25;7.60;;;6.30;99.90;;;;;;5035390;28;20049;-74
2022/05/05 02:59:44;;;;;;;23.10;7.63;;;6.30;99.90;;;;;;5053501;28;20061;-74
2022/05/05 03:02:10;;;;;;;17.92;7.32;;;6.40;99.90;;;;;;5053407;28;20049;-74
2022/05/05 03:04:36;;;;;;;17.27;7.88;;;6.40;99.90;;;;;;5035749;28;20108;-74
2022/05/05 03:07:02;;;;;;;21.00;8.00;;;6.40;99.90;;;;;;5052222;28;20049;-73
2022/05/05 03:09:28;;;;;;;20.10;7.78;;;6.30;99.90;;;;;;5035467;28;20501;-74
2022/05/05 03:11:54;;;;;;;28.85;8.13;;;6.40;99.90;;;;;;5051903;28;20049;-74
2022/05/05 03:14:19;;;;;;;21.80;7.63;;;6.30;99.90;;;;;;5035411;28;20065;-73
2022/05/05 03:16:45;;;;;;;22.55;7.97;;;6.20;99.90;;;;;;5051711;28;20044;-73
2022/05/05 03:19:11;;;;;;;18.88;8.13;;;6.20;99.90;;;;;;5053102;28;20060;-73
2022/05/05 03:21:37;;;;;;;21.95;8.38;;;6.20;99.90;;;;;;5052390;28;20358;-73
2022/05/05 03:24:03;;;;;;;23.55;8.00;;;6.20;99.90;;;;;;5052780;28;20085;-73
2022/05/05 03:26:29;;;;;;;23.70;8.07;;;6.20;99.90;;;;;;5052717;28;20457;-73
2022/05/05 03:28:56;;;;;;;21.85;8.68;;;6.10;99.90;;;;;;5053225;28;20068;-76
2022/05/05 03:31:21;;;;;;;22.98;8.35;;;6.10;99.90;;;;;;5052889;28;20132;-74
2022/05/05 03:33:47;;;;;;;19.80;8.18;;;6.10;99.90;;;;;;5052488;28;20527;-74
2022/05/05 03:36:13;;;;;;;23.77;8.18;;;6.10;99.90;;;;;;5052772;28;20142;-75
2022/05/05 03:38:39;;;;;;;20.52;8.30;;;6.10;99.90;;;;;;5034829;28;20183;-75
2022/05/05 03:41:05;;;;;;;21.58;7.75;;;6.10;99.90;;;;;;5051629;28;20131;-73
2022/05/05 03:43:31;;;;;;;20.88;7.85;;;6.10;99.90;;;;;;5052539;28;20127;-73
2022/05/05 03:45:57;;;;;;;18.52;7.32;;;6.00;99.90;;;;;;5052843;28;20044;-73
2022/05/05 03:48:23;;;;;;;24.08;8.10;;;6.00;99.90;;;;;;5052595;28;20477;-75
2022/05/05 03:50:49;;;;;;;26.15;8.02;;;6.00;99.90;;;;;;5051773;28;20127;-73
2022/05/05 03:53:15;;;;;;;20.08;8.30;;;6.00;99.90;;;;;;5052136;28;20167;-73
2022/05/05 03:55:40;;;;;;;26.40;8.18;;;6.00;99.90;;;;;;5052495;28;20070;-73
2022/05/05 03:58:06;;;;;;;26.10;8.40;;;6.00;99.90;;;;;;5034019;28;20099;-74
2022/05/05 04:00:32;;;;;;;24.48;8.20;;;5.90;99.90;;;;;;5052884;28;20045;-74
2022/05/05 04:05:42;;;;;;;19.85;8.20;;;5.90;99.90;;;;;;5037419;28;20061;-75
2022/05/05 04:08:08;;;;;;;23.33;8.77;;;6.00;99.90;;;;;;5068133;28;20033;-75
2022/05/05 04:10:33;;;;;;;20.58;8.85;;;6.00;99.90;;;;;;5052402;28;20056;-74
2022/05/05 04:12:59;;;;;;;20.95;8.82;;;6.10;99.90;;;;;;5067599;28;20115;-75
2022/05/05 04:15:25;;;;;;;24.10;8.93;;;6.10;99.90;;;;;;5050898;28;20045;-76
2022/05/05 04:17:51;;;;;;;23.95;9.65;;;6.20;99.90;;;;;;5050592;28;20485;-75
2022/05/05 04:20:18;;;;;;;22.88;9.27;;;6.10;99.90;;;;;;5052068;28;20136;-74
2022/05/05 04:22:44;;;;;;;27.17;9.73;;;6.10;99.90;;;;;;5034639;28;20052;-75
2022/05/05 04:25:12;;;;;;;29.55;10.02;;;6.20;99.90;;;;;;5052052;28;20377;-75
2022/05/05 04:27:39;;;;;;;27.10;9.85;;;6.00;99.90;;;;;;5052087;28;20048;-75
2022/05/05 04:30:07;;;;;;;23.33;9.70;;;6.10;99.90;;;;;;5051023;28;20076;-74
2022/05/05 04:32:33;;;;;;;24.42;9.05;;;6.10;99.90;;;;;;5050808;28;20045;-74
2022/05/05 04:34:59;;;;;;;25.73;10.90;;;6.00;99.90;;;;;;5051289;28;20056;-74
2022/05/05 04:37:25;;;;;;;27.50;10.93;;;6.00;99.90;;;;;;5051791;28;20603;-73
2022/05/05 04:39:51;;;;;;;20.80;8.57;;;6.10;99.90;;;;;;5050136;28;20037;-74
2022/05/05 04:42:16;;;;;;;23.98;9.07;;;6.20;99.90;;;;;;5051848;28;20052;-74
2022/05/05 04:44:42;;;;;;;28.10;11.60;;;6.20;99.90;;;;;;5050541;28;20566;-74
2022/05/05 04:47:08;;;;;;;23.23;9.90;;;6.10;99.90;;;;;;5034664;28;20052;-73
2022/05/05 04:49:33;;;;;;;21.95;9.77;;;6.10;99.90;;;;;;5050825;28;20384;-73
2022/05/05 04:51:59;;;;;;;27.65;9.13;;;6.10;99.90;;;;;;5050659;28;20124;-74
2022/05/05 04:54:25;;;;;;;29.98;10.38;;;6.10;99.90;;;;;;5050400;28;20041;-75
2022/05/05 04:56:50;;;;;;;23.65;9.73;;;6.00;99.90;;;;;;5051611;28;20059;-75
2022/05/05 04:59:16;;;;;;;25.27;9.85;;;6.10;99.90;;;;;;5051523;28;20063;-73
2022/05/05 05:01:42;;;;;;;27.55;10.07;;;6.00;99.90;;;;;;5052237;28;20048;-74
2022/05/05 05:04:08;;;;;;;27.08;10.80;;;6.00;99.90;;;;;;5050665;28;20342;-73
2022/05/05 05:06:34;;;;;;;24.25;9.52;;;5.90;99.90;;;;;;5050658;28;20041;-75
2022/05/05 05:09:00;;;;;;;25.75;10.48;;;5.90;99.90;;;;;;5050851;28;20045;-74
2022/05/05 05:11:27;;;;;;;29.13;11.10;;;6.00;99.90;;;;;;5054801;28;20106;-74
2022/05/05 05:13:53;;;;;;;28.40;10.55;;;6.00;99.90;;;;;;5055441;28;20052;-75
2022/05/05 05:16:19;;;;;;;25.23;10.18;;;6.00;99.90;;;;;;5055212;28;20045;-74
2022/05/05 05:18:45;;;;;;;29.25;10.75;;;6.10;99.90;;;;;;5037535;28;20123;-74
2022/05/05 05:21:10;;;;;;;35.40;11.00;;;6.20;99.90;;;;;;5054066;28;20501;-74
2022/05/05 05:23:36;;;;;;;25.42;9.98;;;6.30;99.90;;;;;;5055192;28;20093;-75
2022/05/05 05:26:02;;;;;;;30.20;10.57;;;6.40;99.90;;;;;;5054202;28;20085;-74
2022/05/05 05:28:28;;;;;;;26.48;10.50;;;6.50;99.90;;;;;;5055192;28;20374;-75
2022/05/05 05:30:53;;;;;;;25.95;10.20;;;6.60;99.90;;;;;;5054363;28;20064;-75
2022/05/05 05:33:20;;;;;;;26.60;11.00;;;6.70;99.90;;;;;;5054946;28;20389;-75
2022/05/05 05:35:46;;;;;;;32.55;11.07;;;6.80;99.90;;;;;;5053730;28;20041;-75
2022/05/05 05:38:13;;;;;;;28.13;10.82;;;7.10;99.90;;;;;;5054778;28;20123;-74
2022/05/05 05:40:38;;;;;;;24.98;10.80;;;7.20;99.90;;;;;;5036778;28;20053;-75
2022/05/05 05:43:04;;;;;;;22.52;10.02;;;7.40;99.90;;;;;;5054426;28;20048;-75
2022/05/05 05:45:30;;;;;;;25.02;10.45;;;7.60;99.90;;;;;;5054700;28;20072;-73
2022/05/05 05:47:56;;;;;;;25.30;10.57;;;7.80;99.90;;;;;;5053707;28;20478;-76
2022/05/05 05:50:22;;;;;;;29.55;10.70;;;7.90;99.90;;;;;;5054682;28;20037;-73
2022/05/05 05:52:48;;;;;;;28.58;10.35;;;8.00;99.90;;;;;;5053608;28;20052;-76
2022/05/05 05:55:15;;;;;;;24.27;10.25;;;8.00;99.90;;;;;;5037080;28;20137;-75
2022/05/05 05:57:41;;;;;;;20.50;9.63;;;8.10;99.90;;;;;;5055009;28;20037;-76
2022/05/05 06:00:08;;;;;;;27.95;11.10;;;8.10;99.90;;;;;;5053434;28;20040;-75
2022/05/05 06:05:18;;;;;;;23.75;10.30;;;8.20;99.90;;;;;;5054876;28;20056;-76
2022/05/05 06:07:44;;;;;;;24.38;11.98;;;8.30;99.90;;;;;;5053161;28;20077;-75
2022/05/05 06:10:10;;;;;;;24.80;10.55;;;8.40;99.90;;;;;;5036382;28;20059;-75
2022/05/05 06:12:36;;;;;;;27.65;10.32;;;8.50;99.90;;;;;;5053878;28;20452;-75
2022/05/05 06:15:02;;;;;;;29.15;10.52;;;8.60;99.90;;;;;;5053060;28;20044;-75
2022/05/05 06:17:28;;;;;;;23.87;11.00;;;8.70;99.90;;;;;;5052523;28;20159;-75
2022/05/05 06:19:54;;;;;;;27.35;11.35;;;8.80;99.90;;;;;;5054441;28;20497;-75
2022/05/05 06:22:19;;;;;;;25.58;10.20;;;8.90;99.90;;;;;;5054753;28;20080;-75
2022/05/05 06:24:45;;;;;;;22.88;10.43;;;9.00;99.90;;;;;;5052667;28;20482;-75
2022/05/05 06:27:11;;;;;;;20.20;10.18;;;9.10;99.90;;;;;;5054054;28;20465;-75
2022/05/05 06:29:36;;;;;;;27.00;10.90;;;9.20;99.90;;;;;;5053039;28;20049;-75
2022/05/05 06:32:02;;;;;;;24.45;11.50;;;9.30;99.90;;;;;;5069581;28;20473;-76
2022/05/05 06:34:28;;;;;;;28.30;10.50;;;9.40;99.90;;;;;;5036281;28;20139;-74
2022/05/05 06:36:54;;;;;;;24.40;10.98;;;9.50;99.90;;;;;;5053082;28;20045;-74
2022/05/05 06:39:20;;;;;;;27.10;11.60;;;9.60;99.90;;;;;;5054116;28;20409;-73
2022/05/05 06:41:45;;;;;;;23.02;10.93;;;9.70;99.90;;;;;;5054311;28;20118;-74
2022/05/05 06:44:11;;;;;;;26.02;10.85;;;9.90;99.90;;;;;;5036678;28;20180;-76
2022/05/05 06:46:37;;;;;;;24.00;10.90;;;10.00;99.90;;;;;;5056375;28;20041;-74
2022/05/05 06:49:03;;;;;;;28.70;11.02;;;10.20;99.90;;;;;;5055161;28;20048;-75
2022/05/05 06:51:28;;;;;;;23.52;10.65;;;10.30;99.90;;;;;;5054445;28;20053;-75
2022/05/05 06:53:54;;;;;;;28.42;10.35;;;10.50;99.90;;;;;;5054267;28;20090;-75
2022/05/05 06:56:20;;;;;;;25.40;10.45;;;10.60;99.90;;;;;;5053269;28;20049;-75
2022/05/05 06:58:46;;;;;;;20.85;10.38;;;10.70;99.90;;;;;;5053320;28;20421;-75
2022/05/05 07:06:53;;;;;;;22.63;10.40;;;11.10;99.90;;;;;;5053806;28;20114;-76
2022/05/05 07:12:04;;;;;;;25.45;10.48;;;11.50;99.90;;;;;;5052186;28;20132;-77
2022/05/05 07:14:31;;;;;;;24.30;11.17;;;11.60;99.90;;;;;;5052023;28;20049;-76
2022/05/05 07:16:57;;;;;;;24.33;9.95;;;11.70;99.90;;;;;;5053151;28;20067;-77
2022/05/05 07:19:23;;;;;;;26.58;10.25;;;11.90;99.90;;;;;;5051693;28;20049;-76
2022/05/05 07:21:49;;;;;;;19.33;9.68;;;12.00;99.90;;;;;;5051342;28;20114;-76
2022/05/05 07:24:15;;;;;;;24.77;9.85;;;12.10;99.90;;;;;;5051758;28;20049;-75
2022/05/05 07:26:41;;;;;;;22.63;9.65;;;12.20;99.90;;;;;;5051177;28;20052;-76
2022/05/05 07:29:07;;;;;;;29.73;10.40;;;12.40;99.90;;;;;;5036087;28;20102;-75
2022/05/05 07:31:32;;;;;;;21.90;9.50;;;12.50;99.90;;;;;;5052852;28;20131;-76
2022/05/05 07:33:58;;;;;;;22.35;8.18;;;12.60;99.90;;;;;;5035015;28;20053;-75
2022/05/05 07:36:24;;;;;;;16.30;7.97;;;12.70;99.90;;;;;;5052681;28;20045;-76
2022/05/05 07:38:50;;;;;;;22.23;8.43;;;12.80;99.90;;;;;;5051861;28;20053;-76
2022/05/05 07:41:15;;;;;;;21.73;8.60;;;12.90;99.90;;;;;;5052653;28;20051;-77
2022/05/05 07:43:41;;;;;;;20.25;8.10;;;13.00;99.90;;;;;;5051933;28;20060;-76
2022/05/05 07:46:07;;;;;;;20.45;8.45;;;13.20;99.90;;;;;;5052657;28;20067;-76
2022/05/05 07:48:33;;;;;;;20.50;7.88;;;13.30;99.90;;;;;;5051664;28;20045;-75
2022/05/05 07:50:59;;;;;;;17.10;7.53;;;13.40;99.90;;;;;;5052620;28;20045;-75
2022/05/05 07:53:25;;;;;;;21.98;7.07;;;13.50;99.90;;;;;;5052403;28;20063;-75
2022/05/05 07:55:50;;;;;;;17.23;6.55;;;13.60;99.90;;;;;;5051051;28;20077;-75
2022/05/05 07:58:16;;;;;;;22.40;7.80;;;13.70;99.90;;;;;;5035107;28;20099;-75
2022/05/05 08:00:42;;;;;;;18.08;7.43;;;13.80;99.90;;;;;;5050793;28;20078;-76
2022/05/05 08:03:08;;;;;;;13.93;6.85;;;14.00;99.90;;;;;;5052403;28;20118;-76
2022/05/05 08:05:34;;;;;;;16.95;6.60;;;14.10;99.90;;;;;;5051345;28;20052;-76
2022/05/05 08:07:59;;;;;;;18.40;7.18;;;14.10;99.90;;;;;;5052467;28;20439;-76
2022/05/05 08:10:28;;;;;;;16.75;6.78;;;14.30;99.90;;;;;;5050844;28;20048;-77
2022/05/05 08:12:54;;;;;;;20.98;6.60;;;14.50;99.90;;;;;;5052416;28;20535;-75
2022/05/05 08:15:20;;;;;;;17.23;6.50;;;14.70;99.90;;;;;;5051044;28;20049;-76
2022/05/05 08:17:47;;;;;;;14.00;6.35;;;14.70;99.90;;;;;;5051882;28;20063;-76
2022/05/05 08:20:15;;;;;;;13.18;6.05;;;14.70;99.90;;;;;;5052356;28;20053;-74
2022/05/05 08:22:41;;;;;;;16.95;7.30;;;14.80;99.90;;;;;;5034657;28;20497;-75
2022/05/05 08:30:38;;;;;;;17.85;6.45;;;14.90;96.90;;;;;;5052353;28;20052;-75
2022/05/05 08:33:04;;;;;;;18.80;6.88;;;15.00;99.90;;;;;;5051814;28;20136;-76
2022/05/05 08:35:30;;;;;;;14.48;6.28;;;15.30;99.90;;;;;;5034494;28;20060;-75
2022/05/05 08:37:56;;;;;;;17.37;6.30;;;15.50;99.90;;;;;;5052586;28;20048;-75
2022/05/05 08:40:24;;;;;;;15.00;6.03;;;15.60;99.90;;;;;;5051131;28;20546;-75
2022/05/05 08:42:50;;;;;;;14.45;6.03;;;15.60;98.40;;;;;;5050979;28;20087;-75
2022/05/05 08:45:16;;;;;;;16.02;6.10;;;15.80;97.70;;;;;;5052651;28;20098;-75
2022/05/05 08:47:44;;;;;;;14.60;5.87;;;15.70;95.20;;;;;;5054642;28;20045;-76
2022/05/05 08:50:10;;;;;;;15.77;5.80;;;15.90;97.40;;;;;;5038671;28;20048;-77
2022/05/05 08:52:44;;;;;;;14.32;7.10;;;16.10;97.90;;;;;;5054870;28;20053;-76
2022/05/05 08:55:14;;;;;;;12.93;5.45;;;16.30;97.70;;;;;;5055919;28;20079;-76
2022/05/05 08:57:41;;;;;;;19.30;6.68;;;16.50;97.20;;;;;;5055524;28;20484;-75
2022/05/05 09:00:07;;;;;;;13.65;6.55;;;16.70;95.20;;;;;;5055786;28;20045;-74
2022/05/05 09:02:33;;;;;;;17.25;6.05;;;16.50;94.50;;;;;;5054055;28;20457;-74
2022/05/05 09:04:59;;;;;;;13.32;6.28;;;16.80;95.90;;;;;;5055592;28;20056;-75
2022/05/05 09:07:50;;;;;;;13.93;6.28;;;17.00;95.60;;;;;;5054635;28;20206;-75
2022/05/05 09:10:20;;;;;;;13.52;6.60;;;17.10;95.00;;;;;;5056225;28;20487;-75
2022/05/05 09:13:01;;;;;;;14.00;6.13;;;17.20;94.60;;;;;;5055916;28;20338;-75
2022/05/05 09:15:35;;;;;;;14.05;6.05;;;17.10;94.00;;;;;;5055553;28;20211;-75
2022/05/05 09:18:11;;;;;;;12.32;5.95;;;17.10;92.70;;;;;;5055997;28;20057;-76
2022/05/05 09:20:37;;;;;;;17.77;7.05;;;17.10;93.50;;;;;;5054947;28;20060;-75
2022/05/05 09:23:02;;;;;;;14.03;6.30;;;17.20;94.30;;;;;;5056154;28;20040;-75
2022/05/05 09:25:46;;;;;;;15.27;6.20;;;17.30;94.40;;;;;;5056551;28;20393;-74
2022/05/05 09:28:19;;;;;;;16.05;6.65;;;17.40;93.20;;;;;;5055752;28;20116;-75
2022/05/05 09:30:50;;;;;;;15.90;6.38;;;17.50;91.50;;;;;;5057440;28;20055;-76
2022/05/05 09:33:34;;;;;;;14.82;6.93;;;17.60;92.20;;;;;;5055774;28;20061;-76
2022/05/05 09:36:02;;;;;;;10.07;5.55;;;17.00;87.30;;;;;;5055653;28;20044;-75
2022/05/05 09:38:53;;;;;;;13.73;5.72;;;17.30;91.90;;;;;;5055711;28;20041;-76
2022/05/05 09:41:30;;;;;;;12.35;5.97;;;17.30;91.90;;;;;;5055287;28;20059;-76
2022/05/05 09:43:56;;;;;;;;;;;17.60;91.60;;;;;;5055155;28;20373;-75
2022/05/05 09:46:22;;;;;;;;;;;17.50;90.70;;;;;;5054533;28;19970;-76
2022/05/05 09:48:48;;;;;;;13.80;5.77;;;17.50;85.20;;;;;;5055042;28;19920;-76
2022/05/05 09:51:15;;;;;;;13.70;5.57;;;17.20;83.90;;;;;;5055205;28;20049;-76
2022/05/05 09:59:15;;;;;;;;;;;17.30;85.30;;;;;;5091232;28;19921;-78
2022/05/05 10:01:45;;;;;;;11.07;5.63;;;17.40;89.50;;;;;;5056929;28;20004;-77
2022/05/05 10:04:11;;;;;;;14.40;6.70;;;17.90;88.50;;;;;;5053883;28;20041;-77
2022/05/05 10:06:41;;;;;;;13.23;6.10;;;18.10;89.00;;;;;;5054300;28;20485;-77
2022/05/05 10:09:09;;;;;;;15.90;6.18;;;18.50;88.50;;;;;;5054897;28;20337;-76
2022/05/05 10:11:35;;;;;;;13.02;6.18;;;18.70;86.10;;;;;;5054718;28;20345;-76
2022/05/05 10:14:03;;;;;;;14.13;6.35;;;18.70;86.60;;;;;;5054903;28;20053;-76
2022/05/05 10:16:32;;;;;;;12.63;6.35;;;18.70;84.80;;;;;;5053698;28;20080;-76
2022/05/05 10:18:58;;;;;;;15.68;5.72;;;18.60;83.90;;;;;;5055025;28;20096;-76
2022/05/05 10:21:46;;;;;;;11.65;6.45;;;18.80;85.50;;;;;;5037532;28;20114;-75
2022/05/05 10:25:16;;;;;;;13.45;6.40;;;18.70;82.70;;;;;;5055207;28;20049;-76
2022/05/05 10:27:43;;;;;;;12.38;6.30;;;18.70;82.30;;;;;;4988332;28;20049;-76
2022/05/05 10:30:16;;;;;;;13.23;5.70;;;18.40;81.70;;;;;;5037890;28;20067;-75
2022/05/05 10:32:43;;;;;;;12.77;6.20;;;18.40;79.10;;;;;;5054817;28;20087;-75
2022/05/05 10:35:22;;;;;;;12.40;6.55;;;18.20;78.00;;;;;;5053461;28;20060;-75
2022/05/05 10:37:48;;;;;;;11.18;6.38;;;18.40;77.30;;;;;;5052753;28;20119;-76
2022/05/05 10:40:14;;;;;;;13.67;6.50;;;17.90;76.80;;;;;;5035920;28;20128;-74
2022/05/05 10:42:45;;;;;;;11.83;5.70;;;18.00;78.50;;;;;;5054076;28;20051;-74
2022/05/05 10:45:13;;;;;;;12.02;6.05;;;18.10;78.40;;;;;;5053304;28;20053;-75
2022/05/05 10:48:06;;;;;;;10.70;5.53;;;18.00;74.50;;;;;;5052649;28;20045;-76
2022/05/05 10:50:54;;;;;;;15.40;5.75;;;18.30;76.90;;;;;;5054309;28;20045;-76
2022/05/05 10:53:31;;;;;;;13.63;5.82;;;18.50;78.10;;;;;;5053064;28;20127;-75
2022/05/05 10:55:59;;;;;;;11.50;5.47;;;18.90;73.40;;;;;;5053738;28;20110;-75
2022/05/05 10:58:59;;;;;;;12.63;5.45;;;18.90;76.20;;;;;;5052462;28;20537;-76
2022/05/05 11:01:26;;;;;;;10.05;5.18;;;19.20;71.60;;;;;;5053896;28;20045;-75
2022/05/05 11:04:11;;;;;;;;;;;18.90;72.00;;;;;;5052801;28;20044;-76
2022/05/05 11:06:38;;;;;;;15.82;6.18;;;19.10;73.10;;;;;;5052635;28;20420;-76
2022/05/05 11:09:05;;;;;;;13.43;5.95;;;19.40;75.40;;;;;;5053585;28;20045;-77
2022/05/05 11:11:40;;;;;;;13.32;6.40;;;19.60;76.60;;;;;;5035296;28;20049;-76
2022/05/05 11:23:08;;;;;;;14.25;6.80;;;20.10;72.40;;;;;;5052895;28;20135;-76
2022/05/05 11:25:35;;;;;;;13.77;6.40;;;20.00;73.60;;;;;;5051897;28;20044;-76
2022/05/05 11:28:01;;;;;;;13.10;6.80;;;19.80;73.50;;;;;;5053087;28;20064;-76
2022/05/05 11:30:28;;;;;;;15.03;7.20;;;19.60;74.50;;;;;;5052931;28;20052;-76
2022/05/05 11:32:53;;;;;;;;;;;20.00;75.20;;;;;;5052346;28;20052;-76
2022/05/05 11:35:22;;;;;;;12.53;6.40;;;20.00;74.50;;;;;;5052289;28;19924;-78
2022/05/05 11:37:48;;;;;;;14.30;6.25;;;20.00;73.50;;;;;;5051299;28;20744;-77
2022/05/05 11:40:14;;;;;;;14.38;6.60;;;20.00;73.60;;;;;;5051669;28;20045;-77
2022/05/05 11:44:14;;;;;;;13.73;6.57;;;20.30;75.00;;;;;;5052910;28;20049;-78
2022/05/05 11:45:29;;;;;;;15.52;8.02;;;20.60;74.60;;;;;;5053115;28;20068;-76
2022/05/05 11:47:55;;;;;;;15.47;6.60;;;19.70;69.70;;;;;;5053040;28;20075;-78
2022/05/05 11:50:22;;;;;;;15.68;6.78;;;19.90;72.50;;;;;;5053042;28;20056;-77
2022/05/05 11:52:48;;;;;;;12.95;6.28;;;20.30;73.30;;;;;;5053626;28;20400;-77
2022/05/05 11:55:19;;;;;;;14.47;7.60;;;20.60;72.80;;;;;;5051298;28;20056;-77
2022/05/05 11:57:47;;;;;;;12.98;6.63;;;20.00;66.80;;;;;;5052541;28;20041;-76
2022/05/05 12:03:00;;;;;;;16.38;7.65;;;20.00;70.60;;;;;;5052634;28;20075;-77
2022/05/05 12:05:26;;;;;;;12.90;6.43;;;19.90;68.30;;;;;;5051589;28;20120;-76
2022/05/05 12:07:53;;;;;;;13.73;6.70;;;20.20;70.50;;;;;;5068357;28;20147;-75
2022/05/05 12:10:21;;;;;;;13.82;6.40;;;20.40;71.70;;;;;;5052497;28;20053;-76
2022/05/05 12:12:52;;;;;;;15.25;6.25;;;20.60;71.00;;;;;;5051786;28;20076;-75
2022/05/05 12:15:20;;;;;;;14.18;6.35;;;20.70;69.40;;;;;;5053072;28;20048;-77
2022/05/05 12:17:52;;;;;;;15.52;6.32;;;20.50;68.90;;;;;;5050891;28;20053;-79
2022/05/05 12:20:21;;;;;;;11.93;5.72;;;20.60;69.30;;;;;;5058816;28;20053;-78
2022/05/05 12:23:13;;;;;;;12.68;6.13;;;20.50;67.20;;;;;;5059088;28;20118;-75
2022/05/05 12:25:43;;;;;;;10.93;5.85;;;19.80;66.70;;;;;;5056698;28;20064;-77
2022/05/05 12:28:09;;;;;;;12.82;5.53;;;19.80;66.10;;;;;;5059283;28;20064;-77
2022/05/05 12:30:43;;;;;;;12.27;5.23;;;20.10;69.10;;;;;;5058369;28;20048;-77
2022/05/05 12:33:15;;;;;;;12.02;5.90;;;20.20;68.60;;;;;;5058994;28;20098;-77
2022/05/05 12:35:46;;;;;;;11.40;5.82;;;20.00;67.90;;;;;;5059016;28;20511;-78
2022/05/05 12:38:14;;;;;;;12.23;5.05;;;20.10;67.10;;;;;;5059307;28;20044;-78
2022/05/05 12:40:42;;;;;;;12.60;6.20;;;20.10;68.50;;;;;;5058823;28;20060;-77
2022/05/05 12:43:13;;;;;;;14.68;6.85;;;19.60;63.60;;;;;;5057947;28;20538;-76
2022/05/05 12:45:40;;;;;;;13.50;5.53;;;19.30;64.30;;;;;;5059506;28;20320;-76
2022/05/05 12:48:07;;;;;;;;;;;19.50;65.90;;;;;;5058835;28;20415;-78
2022/05/05 12:50:41;;;;;;;10.10;5.90;;;19.80;66.40;;;;;;5091320;28;19924;-77
2022/05/05 13:01:24;;;;;;;8.18;3.72;;;20.80;63.10;;;;;;5058455;28;20053;-76
2022/05/05 13:03:56;;;;;;;10.13;4.50;;;20.60;63.10;;;;;;5058387;28;20045;-77
2022/05/05 13:06:22;;;;;;;10.98;5.03;;;20.80;63.70;;;;;;5058582;28;20053;-75
2022/05/05 13:08:49;;;;;;;10.60;5.43;;;20.90;63.80;;;;;;5040735;28;20175;-76
2022/05/05 13:11:16;;;;;;;16.05;6.57;;;20.50;63.80;;;;;;5059125;28;20087;-75
2022/05/05 13:13:41;;;;;;;11.90;6.43;;;19.80;63.70;;;;;;5058416;28;20504;-76
2022/05/05 13:16:07;;;;;;;12.43;5.87;;;19.40;65.90;;;;;;5058636;28;20132;-76
2022/05/05 13:18:33;;;;;;;12.37;6.43;;;19.50;66.00;;;;;;5058561;28;20099;-76
2022/05/05 13:20:58;;;;;;;13.73;6.37;;;19.30;65.90;;;;;;5058628;28;20443;-75
2022/05/05 13:23:24;;;;;;;12.30;6.60;;;19.50;66.60;;;;;;5040907;28;20049;-76
2022/05/05 13:25:50;;;;;;;12.80;7.07;;;19.60;65.30;;;;;;5057175;28;20071;-75
2022/05/05 13:28:15;;;;;;;17.73;6.30;;;19.80;65.00;;;;;;5057364;28;20430;-75
2022/05/05 13:30:41;;;;;;;12.53;5.77;;;19.70;66.70;;;;;;5055147;28;20136;-75
2022/05/05 13:33:07;;;;;;;11.37;5.47;;;19.40;65.20;;;;;;5054320;28;20049;-76
2022/05/05 13:35:32;;;;;;;11.70;5.70;;;19.60;65.30;;;;;;5054256;28;20424;-76
2022/05/05 13:37:58;;;;;;;13.20;5.83;;;19.90;66.00;;;;;;5037152;28;20037;-76
2022/05/05 13:40:25;;;;;;;11.45;5.90;;;20.20;66.30;;;;;;5055014;28;20048;-76
2022/05/05 13:42:51;;;;;;;12.98;6.32;;;19.90;66.00;;;;;;5036979;28;20076;-76